createdAt,value
2019-03-13T00:00:10.132Z,19.28
2019-03-13T00:00:50.724Z,19.28
2019-03-13T00:01:31.313Z,19.29
2019-03-13T00:02:11.903Z,19.28
2019-03-13T00:02:52.570Z,19.31
2019-03-13T00:03:33.169Z,19.29
2019-03-13T00:04:13.799Z,19.29
2019-03-13T00:04:54.480Z,19.25
2019-03-13T00:05:35.069Z,19.23
2019-03-13T00:06:15.665Z,19.25
2019-03-13T00:06:56.303Z,19.29
2019-03-13T00:07:36.959Z,19.29
2019-03-13T00:08:17.559Z,19.26
2019-03-13T00:08:58.151Z,19.25
2019-03-13T00:09:38.741Z,19.33
2019-03-13T00:10:19.343Z,19.32
2019-03-13T00:10:59.956Z,19.25
2019-03-13T00:11:40.669Z,19.29
2019-03-13T00:12:21.349Z,19.25
2019-03-13T00:13:02.009Z,19.31
2019-03-13T00:13:42.566Z,19.39
2019-03-13T00:14:23.169Z,19.26
2019-03-13T00:15:03.766Z,19.36
2019-03-13T00:15:44.401Z,19.39
2019-03-13T00:16:26.953Z,19.28
2019-03-13T00:17:07.755Z,19.29
2019-03-13T00:17:48.371Z,19.31
2019-03-13T00:18:28.962Z,19.26
2019-03-13T00:19:09.553Z,19.29
2019-03-13T00:19:50.183Z,19.31
2019-03-13T00:20:30.816Z,19.41
2019-03-13T00:21:11.412Z,19.41
2019-03-13T00:21:52.031Z,19.26
2019-03-13T00:22:32.629Z,19.31
2019-03-13T00:23:13.214Z,19.25
2019-03-13T00:23:53.817Z,19.33
2019-03-13T00:24:34.633Z,19.28
2019-03-13T00:25:15.204Z,19.31
2019-03-13T00:25:55.807Z,19.26
2019-03-13T00:26:36.436Z,19.26
2019-03-13T00:27:17.039Z,19.29
2019-03-13T00:27:57.639Z,19.28
2019-03-13T00:28:38.268Z,19.36
2019-03-13T00:29:18.868Z,19.29
2019-03-13T00:29:59.464Z,19.33
2019-03-13T00:30:41.617Z,19.26
2019-03-13T00:31:22.207Z,19.26
2019-03-13T00:32:02.858Z,19.26
2019-03-13T00:32:43.571Z,19.33
2019-03-13T00:33:25.462Z,19.26
2019-03-13T00:34:06.060Z,19.39
2019-03-13T00:34:46.713Z,19.23
2019-03-13T00:35:27.324Z,19.28
2019-03-13T00:36:07.914Z,19.26
2019-03-13T00:36:48.551Z,19.28
2019-03-13T00:37:29.165Z,19.28
2019-03-13T00:38:09.746Z,19.26
2019-03-13T00:38:50.328Z,19.26
2019-03-13T00:39:30.944Z,19.25
2019-03-13T00:40:11.528Z,19.28
2019-03-13T00:40:52.124Z,19.28
2019-03-13T00:41:32.717Z,19.39
2019-03-13T00:42:13.367Z,19.29
2019-03-13T00:42:53.986Z,19.26
2019-03-13T00:43:35.434Z,19.28
2019-03-13T00:44:16.554Z,19.28
2019-03-13T00:44:57.405Z,19.28
2019-03-13T00:45:38.004Z,19.23
2019-03-13T00:46:18.622Z,19.29
2019-03-13T00:46:59.215Z,19.26
2019-03-13T00:47:39.842Z,19.29
2019-03-13T00:48:20.491Z,19.22
2019-03-13T00:49:01.168Z,19.26
2019-03-13T00:49:42.202Z,19.33
2019-03-13T00:50:22.756Z,19.26
2019-03-13T00:51:03.380Z,19.32
2019-03-13T00:51:44.018Z,19.33
2019-03-13T00:52:24.605Z,19.33
2019-03-13T00:53:05.233Z,19.31
2019-03-13T00:53:45.823Z,19.29
2019-03-13T00:54:26.412Z,19.25
2019-03-13T00:55:07.082Z,19.25
2019-03-13T00:55:47.676Z,19.25
2019-03-13T00:56:28.266Z,19.26
2019-03-13T00:57:08.877Z,19.29
2019-03-13T00:57:49.942Z,19.26
2019-03-13T00:58:30.749Z,19.21
2019-03-13T00:59:11.363Z,19.29
2019-03-13T00:59:51.987Z,19.23
2019-03-13T01:00:32.584Z,19.29
2019-03-13T01:01:13.190Z,19.28
2019-03-13T01:01:53.850Z,19.33
2019-03-13T01:02:34.436Z,19.21
2019-03-13T01:03:15.027Z,19.29
2019-03-13T01:03:55.628Z,19.22
2019-03-13T01:04:36.313Z,19.31
2019-03-13T01:05:16.910Z,19.25
2019-03-13T01:05:57.506Z,19.26
2019-03-13T01:06:38.108Z,19.28
2019-03-13T01:07:18.711Z,19.32
2019-03-13T01:07:59.313Z,19.26
2019-03-13T01:08:39.898Z,19.22
2019-03-13T01:09:20.514Z,19.25
2019-03-13T01:10:01.106Z,19.18
2019-03-13T01:10:41.760Z,19.22
2019-03-13T01:11:22.365Z,19.31
2019-03-13T01:12:02.956Z,19.32
2019-03-13T01:12:43.558Z,19.26
2019-03-13T01:13:24.162Z,19.26
2019-03-13T01:14:04.760Z,19.22
2019-03-13T01:14:45.379Z,19.26
2019-03-13T01:15:25.965Z,19.26
2019-03-13T01:16:06.556Z,19.25
2019-03-13T01:16:47.154Z,19.28
2019-03-13T01:17:27.750Z,19.26
2019-03-13T01:18:08.347Z,19.23
2019-03-13T01:18:49.006Z,19.28
2019-03-13T01:19:29.567Z,19.23
2019-03-13T01:20:10.176Z,19.25
2019-03-13T01:20:50.876Z,19.28
2019-03-13T01:21:31.467Z,19.26
2019-03-13T01:22:12.066Z,19.23
2019-03-13T01:22:52.713Z,19.23
2019-03-13T01:23:33.310Z,19.21
2019-03-13T01:24:13.918Z,19.25
2019-03-13T01:24:54.512Z,19.26
2019-03-13T01:25:35.108Z,19.26
2019-03-13T01:26:15.708Z,19.29
2019-03-13T01:26:56.318Z,19.22
2019-03-13T01:27:36.904Z,19.28
2019-03-13T01:28:17.502Z,19.28
2019-03-13T01:28:58.108Z,19.19
2019-03-13T01:29:38.700Z,19.33
2019-03-13T01:30:19.314Z,19.29
2019-03-13T01:30:59.909Z,19.28
2019-03-13T01:31:40.516Z,19.23
2019-03-13T01:32:21.125Z,19.23
2019-03-13T01:33:01.723Z,19.33
2019-03-13T01:33:42.303Z,19.25
2019-03-13T01:34:22.887Z,19.21
2019-03-13T01:35:03.480Z,19.21
2019-03-13T01:35:44.081Z,19.22
2019-03-13T01:36:24.678Z,19.26
2019-03-13T01:37:05.310Z,19.28
2019-03-13T01:37:45.932Z,19.18
2019-03-13T01:38:26.552Z,19.25
2019-03-13T01:39:07.180Z,19.21
2019-03-13T01:39:47.800Z,19.22
2019-03-13T01:40:28.406Z,19.26
2019-03-13T01:41:09.002Z,19.22
2019-03-13T01:41:49.594Z,19.29
2019-03-13T01:42:30.198Z,19.25
2019-03-13T01:43:10.804Z,19.29
2019-03-13T01:43:51.417Z,19.23
2019-03-13T01:44:32.012Z,19.23
2019-03-13T01:45:12.623Z,19.22
2019-03-13T01:45:53.276Z,19.23
2019-03-13T01:46:33.911Z,19.28
2019-03-13T01:47:14.512Z,19.25
2019-03-13T01:47:55.109Z,19.28
2019-03-13T01:48:35.716Z,19.28
2019-03-13T01:49:16.327Z,19.25
2019-03-13T01:49:56.951Z,19.18
2019-03-13T01:50:37.532Z,19.16
2019-03-13T01:51:18.135Z,19.23
2019-03-13T01:51:58.736Z,19.22
2019-03-13T01:52:39.316Z,19.28
2019-03-13T01:53:19.911Z,19.22
2019-03-13T01:54:00.499Z,19.22
2019-03-13T01:54:41.098Z,19.21
2019-03-13T01:55:21.682Z,19.18
2019-03-13T01:56:02.284Z,19.19
2019-03-13T01:56:42.884Z,19.23
2019-03-13T01:57:23.481Z,19.25
2019-03-13T01:58:04.097Z,19.22
2019-03-13T01:58:44.711Z,19.22
2019-03-13T01:59:25.405Z,19.25
2019-03-13T02:00:05.912Z,19.26
2019-03-13T02:00:46.503Z,19.18
2019-03-13T02:01:27.090Z,19.14
2019-03-13T02:02:07.670Z,19.23
2019-03-13T02:02:48.260Z,19.16
2019-03-13T02:03:28.856Z,19.14
2019-03-13T02:04:09.454Z,19.16
2019-03-13T02:04:50.049Z,19.29
2019-03-13T02:05:30.661Z,19.23
2019-03-13T02:06:11.241Z,19.19
2019-03-13T02:06:51.832Z,19.18
2019-03-13T02:07:32.436Z,19.19
2019-03-13T02:08:13.031Z,19.19
2019-03-13T02:08:53.630Z,19.21
2019-03-13T02:09:34.224Z,19.23
2019-03-13T02:10:14.824Z,19.18
2019-03-13T02:10:55.423Z,19.19
2019-03-13T02:11:36.020Z,19.19
2019-03-13T02:12:16.602Z,19.19
2019-03-13T02:12:57.202Z,19.25
2019-03-13T02:13:37.792Z,19.19
2019-03-13T02:14:18.424Z,19.22
2019-03-13T02:14:59.024Z,19.22
2019-03-13T02:15:39.628Z,19.18
2019-03-13T02:16:20.228Z,19.14
2019-03-13T02:17:00.842Z,19.22
2019-03-13T02:17:41.427Z,19.21
2019-03-13T02:18:22.036Z,19.16
2019-03-13T02:19:02.634Z,19.13
2019-03-13T02:19:43.222Z,19.22
2019-03-13T02:20:23.816Z,19.19
2019-03-13T02:21:04.424Z,19.19
2019-03-13T02:21:45.014Z,19.19
2019-03-13T02:22:25.608Z,19.13
2019-03-13T02:23:06.223Z,19.22
2019-03-13T02:23:46.824Z,19.22
2019-03-13T02:24:27.412Z,19.21
2019-03-13T02:25:08.003Z,19.16
2019-03-13T02:25:48.616Z,19.18
2019-03-13T02:26:29.198Z,19.19
2019-03-13T02:27:09.825Z,19.19
2019-03-13T02:27:50.423Z,19.13
2019-03-13T02:28:31.040Z,19.22
2019-03-13T02:29:11.642Z,19.22
2019-03-13T02:29:52.224Z,19.22
2019-03-13T02:30:32.828Z,19.18
2019-03-13T02:31:13.443Z,19.14
2019-03-13T02:31:54.041Z,19.16
2019-03-13T02:32:34.644Z,19.21
2019-03-13T02:33:15.236Z,19.14
2019-03-13T02:33:55.820Z,19.16
2019-03-13T02:34:36.403Z,19.18
2019-03-13T02:35:16.982Z,19.21
2019-03-13T02:35:57.563Z,19.18
2019-03-13T02:36:38.217Z,19.13
2019-03-13T02:37:18.813Z,19.22
2019-03-13T02:37:59.429Z,19.19
2019-03-13T02:38:40.026Z,19.19
2019-03-13T02:39:20.624Z,19.14
2019-03-13T02:40:01.217Z,19.26
2019-03-13T02:40:41.829Z,19.13
2019-03-13T02:41:22.434Z,19.16
2019-03-13T02:42:04.962Z,19.21
2019-03-13T02:42:45.514Z,19.19
2019-03-13T02:43:26.115Z,19.16
2019-03-13T02:44:06.732Z,19.21
2019-03-13T02:44:47.394Z,19.13
2019-03-13T02:45:27.974Z,19.19
2019-03-13T02:46:08.595Z,19.21
2019-03-13T02:46:49.173Z,19.21
2019-03-13T02:47:29.756Z,19.23
2019-03-13T02:48:10.354Z,19.19
2019-03-13T02:48:50.940Z,19.18
2019-03-13T02:49:31.543Z,19.18
2019-03-13T02:50:12.147Z,19.18
2019-03-13T02:50:52.757Z,19.21
2019-03-13T02:51:33.358Z,19.13
2019-03-13T02:52:13.934Z,19.14
2019-03-13T02:52:54.544Z,19.16
2019-03-13T02:53:35.140Z,19.19
2019-03-13T02:54:15.743Z,19.26
2019-03-13T02:54:56.321Z,19.18
2019-03-13T02:55:36.918Z,19.22
2019-03-13T02:56:17.528Z,19.19
2019-03-13T02:56:58.120Z,19.14
2019-03-13T02:57:38.724Z,19.21
2019-03-13T02:58:19.312Z,19.22
2019-03-13T02:58:59.908Z,19.26
2019-03-13T02:59:40.516Z,19.13
2019-03-13T03:00:21.106Z,19.22
2019-03-13T03:01:01.700Z,19.23
2019-03-13T03:01:42.292Z,19.23
2019-03-13T03:02:22.893Z,19.26
2019-03-13T03:03:03.494Z,19.22
2019-03-13T03:03:44.082Z,19.16
2019-03-13T03:04:24.691Z,19.22
2019-03-13T03:05:05.272Z,19.25
2019-03-13T03:05:45.889Z,19.23
2019-03-13T03:06:26.456Z,19.11
2019-03-13T03:07:07.041Z,19.18
2019-03-13T03:07:47.775Z,19.23
2019-03-13T03:08:28.305Z,19.1
2019-03-13T03:09:08.919Z,19.14
2019-03-13T03:09:49.529Z,19.16
2019-03-13T03:10:30.128Z,19.21
2019-03-13T03:11:10.716Z,19.11
2019-03-13T03:11:51.303Z,19.18
2019-03-13T03:12:31.890Z,19.19
2019-03-13T03:13:12.477Z,19.22
2019-03-13T03:13:53.080Z,19.14
2019-03-13T03:14:33.687Z,19.19
2019-03-13T03:15:14.315Z,19.19
2019-03-13T03:15:54.972Z,19.16
2019-03-13T03:16:35.566Z,19.13
2019-03-13T03:17:16.161Z,19.21
2019-03-13T03:17:56.754Z,19.21
2019-03-13T03:18:37.374Z,19.1
2019-03-13T03:19:17.960Z,19.16
2019-03-13T03:19:58.536Z,19.16
2019-03-13T03:20:39.142Z,19.07
2019-03-13T03:21:19.740Z,19.18
2019-03-13T03:22:00.394Z,19.13
2019-03-13T03:22:40.945Z,19.16
2019-03-13T03:23:23.224Z,19.18
2019-03-13T03:24:03.851Z,19.25
2019-03-13T03:24:44.439Z,19.16
2019-03-13T03:25:25.034Z,19.16
2019-03-13T03:26:05.647Z,19.13
2019-03-13T03:26:46.241Z,19.21
2019-03-13T03:27:26.856Z,19.16
2019-03-13T03:28:07.452Z,19.14
2019-03-13T03:28:48.050Z,19.14
2019-03-13T03:29:28.638Z,19.18
2019-03-13T03:30:09.242Z,19.22
2019-03-13T03:30:49.867Z,19.07
2019-03-13T03:31:30.417Z,19.16
2019-03-13T03:32:11.038Z,19.21
2019-03-13T03:32:51.608Z,19.13
2019-03-13T03:33:32.214Z,19.13
2019-03-13T03:34:12.848Z,19.16
2019-03-13T03:34:53.426Z,19.18
2019-03-13T03:35:34.033Z,19.16
2019-03-13T03:36:14.628Z,19.16
2019-03-13T03:36:55.224Z,19.16
2019-03-13T03:37:35.836Z,19.14
2019-03-13T03:38:16.436Z,19.13
2019-03-13T03:38:57.024Z,19.22
2019-03-13T03:39:37.619Z,19.08
2019-03-13T03:40:22.079Z,19.19
2019-03-13T03:40:58.811Z,19.1
2019-03-13T03:41:39.411Z,19.18
2019-03-13T03:42:19.995Z,19.14
2019-03-13T03:43:00.604Z,19.13
2019-03-13T03:43:41.335Z,19.08
2019-03-13T03:44:21.785Z,19.14
2019-03-13T03:45:02.369Z,19.18
2019-03-13T03:45:42.961Z,19.1
2019-03-13T03:46:23.567Z,19.14
2019-03-13T03:47:04.163Z,19.16
2019-03-13T03:47:44.763Z,19.13
2019-03-13T03:48:25.375Z,19.14
2019-03-13T03:49:05.979Z,19.16
2019-03-13T03:49:46.589Z,19.1
2019-03-13T03:50:27.202Z,19.13
2019-03-13T03:51:07.787Z,19.11
2019-03-13T03:51:48.383Z,19.19
2019-03-13T03:52:28.986Z,19.13
2019-03-13T03:53:09.583Z,19.11
2019-03-13T03:53:50.178Z,19.16
2019-03-13T03:54:30.767Z,19.16
2019-03-13T03:55:11.361Z,19.14
2019-03-13T03:55:51.953Z,19.18
2019-03-13T03:56:32.544Z,19.14
2019-03-13T03:57:13.132Z,19.19
2019-03-13T03:57:53.729Z,19.08
2019-03-13T03:58:34.317Z,19.18
2019-03-13T03:59:14.972Z,19.1
2019-03-13T03:59:55.506Z,19.16
2019-03-13T04:00:36.092Z,19.13
2019-03-13T04:01:16.707Z,19.04
2019-03-13T04:01:57.285Z,19.02
2019-03-13T04:02:37.887Z,19.13
2019-03-13T04:03:18.473Z,19.11
2019-03-13T04:03:59.084Z,19.11
2019-03-13T04:04:39.670Z,19.13
2019-03-13T04:05:20.264Z,19.13
2019-03-13T04:06:00.845Z,19.04
2019-03-13T04:06:41.475Z,19.11
2019-03-13T04:07:22.066Z,19.08
2019-03-13T04:08:02.707Z,19.14
2019-03-13T04:08:43.303Z,19.13
2019-03-13T04:09:23.929Z,19.13
2019-03-13T04:10:04.523Z,19.13
2019-03-13T04:10:45.112Z,19.14
2019-03-13T04:11:25.697Z,19.11
2019-03-13T04:12:06.289Z,19.13
2019-03-13T04:12:46.886Z,19.1
2019-03-13T04:13:27.499Z,19.14
2019-03-13T04:14:08.103Z,19.1
2019-03-13T04:14:48.692Z,19.1
2019-03-13T04:15:29.296Z,19.07
2019-03-13T04:16:09.887Z,19.1
2019-03-13T04:16:50.521Z,19.07
2019-03-13T04:17:31.115Z,19.13
2019-03-13T04:18:13.471Z,19.1
2019-03-13T04:18:54.069Z,19.11
2019-03-13T04:19:34.657Z,19.13
2019-03-13T04:20:15.243Z,19.13
2019-03-13T04:20:55.843Z,19
2019-03-13T04:21:36.443Z,19.11
2019-03-13T04:22:17.030Z,19.1
2019-03-13T04:22:57.632Z,19.04
2019-03-13T04:23:38.235Z,19.1
2019-03-13T04:24:18.829Z,19.07
2019-03-13T04:24:59.431Z,19.14
2019-03-13T04:25:40.019Z,19.06
2019-03-13T04:26:20.630Z,19.13
2019-03-13T04:27:01.255Z,19.04
2019-03-13T04:27:41.851Z,19.1
2019-03-13T04:28:22.449Z,19.07
2019-03-13T04:29:03.149Z,19.1
2019-03-13T04:29:43.628Z,19.1
2019-03-13T04:30:24.233Z,19.08
2019-03-13T04:31:04.838Z,19
2019-03-13T04:31:45.429Z,19.06
2019-03-13T04:32:26.021Z,19.02
2019-03-13T04:33:06.650Z,19.08
2019-03-13T04:33:47.237Z,19.11
2019-03-13T04:34:27.824Z,19.07
2019-03-13T04:35:08.419Z,19.02
2019-03-13T04:35:49.011Z,19.07
2019-03-13T04:36:29.643Z,19.06
2019-03-13T04:37:10.240Z,19.08
2019-03-13T04:37:50.869Z,19.08
2019-03-13T04:38:31.417Z,19.06
2019-03-13T04:39:12.002Z,19.11
2019-03-13T04:39:52.594Z,19.14
2019-03-13T04:40:33.192Z,19.08
2019-03-13T04:41:13.795Z,19.06
2019-03-13T04:41:54.410Z,19.02
2019-03-13T04:42:35.005Z,19.04
2019-03-13T04:43:15.595Z,19.04
2019-03-13T04:43:56.207Z,18.99
2019-03-13T04:44:36.806Z,19.02
2019-03-13T04:45:17.403Z,19.16
2019-03-13T04:45:58.000Z,19.1
2019-03-13T04:46:38.614Z,19.04
2019-03-13T04:47:19.212Z,19
2019-03-13T04:47:59.823Z,19.14
2019-03-13T04:48:40.436Z,19.07
2019-03-13T04:49:21.041Z,19.07
2019-03-13T04:50:01.645Z,19.07
2019-03-13T04:50:42.239Z,19.04
2019-03-13T04:51:22.836Z,19.06
2019-03-13T04:52:03.443Z,19.06
2019-03-13T04:52:44.043Z,19.06
2019-03-13T04:53:24.629Z,18.95
2019-03-13T04:54:05.233Z,19.02
2019-03-13T04:54:45.832Z,19.07
2019-03-13T04:55:26.429Z,19.02
2019-03-13T04:56:07.024Z,19.07
2019-03-13T04:56:47.629Z,19.02
2019-03-13T04:57:28.211Z,19
2019-03-13T04:58:08.794Z,19.07
2019-03-13T04:58:49.405Z,19.04
2019-03-13T04:59:30.007Z,19.04
2019-03-13T05:00:10.603Z,19.07
2019-03-13T05:00:51.201Z,19.07
2019-03-13T05:01:31.793Z,19.07
2019-03-13T05:02:12.405Z,19.06
2019-03-13T05:02:53.053Z,19.06
2019-03-13T05:03:33.663Z,19.07
2019-03-13T05:04:14.264Z,19
2019-03-13T05:04:54.855Z,19.02
2019-03-13T05:05:35.445Z,19.06
2019-03-13T05:06:16.060Z,19.07
2019-03-13T05:06:56.672Z,19.07
2019-03-13T05:07:37.267Z,18.98
2019-03-13T05:08:17.855Z,19.07
2019-03-13T05:08:58.503Z,19.06
2019-03-13T05:09:39.097Z,19.07
2019-03-13T05:10:19.695Z,19
2019-03-13T05:11:00.304Z,19.02
2019-03-13T05:11:40.893Z,18.95
2019-03-13T05:12:21.504Z,19.02
2019-03-13T05:13:02.214Z,19.02
2019-03-13T05:13:42.745Z,19
2019-03-13T05:14:23.346Z,19.04
2019-03-13T05:15:03.993Z,18.99
2019-03-13T05:15:44.589Z,19
2019-03-13T05:16:25.179Z,19
2019-03-13T05:17:05.769Z,19.07
2019-03-13T05:17:46.373Z,18.95
2019-03-13T05:18:26.967Z,19
2019-03-13T05:19:07.557Z,19.06
2019-03-13T05:19:48.169Z,18.99
2019-03-13T05:20:28.753Z,19.07
2019-03-13T05:21:09.361Z,19.02
2019-03-13T05:21:49.967Z,18.99
2019-03-13T05:22:30.568Z,18.98
2019-03-13T05:23:11.167Z,19.06
2019-03-13T05:23:51.766Z,19.02
2019-03-13T05:24:32.361Z,19.06
2019-03-13T05:25:12.967Z,18.99
2019-03-13T05:25:53.572Z,19.02
2019-03-13T05:26:34.176Z,18.95
2019-03-13T05:27:14.793Z,19.07
2019-03-13T05:27:55.359Z,18.94
2019-03-13T05:28:35.961Z,19.02
2019-03-13T05:29:16.533Z,18.94
2019-03-13T05:29:57.141Z,18.99
2019-03-13T05:30:37.739Z,19
2019-03-13T05:31:18.333Z,18.99
2019-03-13T05:31:58.935Z,19.06
2019-03-13T05:32:39.541Z,18.98
2019-03-13T05:33:20.147Z,18.99
2019-03-13T05:34:00.727Z,19.02
2019-03-13T05:34:41.319Z,18.99
2019-03-13T05:35:21.911Z,18.99
2019-03-13T05:36:02.505Z,18.94
2019-03-13T05:36:43.129Z,19.04
2019-03-13T05:37:23.725Z,19.02
2019-03-13T05:38:04.333Z,19.02
2019-03-13T05:38:44.928Z,19.04
2019-03-13T05:39:25.532Z,19.04
2019-03-13T05:40:06.131Z,18.95
2019-03-13T05:40:46.712Z,18.94
2019-03-13T05:41:27.308Z,18.94
2019-03-13T05:42:07.915Z,19.04
2019-03-13T05:42:48.513Z,18.98
2019-03-13T05:43:29.115Z,19.06
2019-03-13T05:44:09.696Z,18.92
2019-03-13T05:44:50.295Z,19.04
2019-03-13T05:45:30.901Z,18.98
2019-03-13T05:46:11.494Z,18.92
2019-03-13T05:46:52.090Z,18.95
2019-03-13T05:47:32.685Z,19.06
2019-03-13T05:48:13.289Z,18.94
2019-03-13T05:48:53.903Z,18.95
2019-03-13T05:49:34.515Z,18.99
2019-03-13T05:50:15.137Z,18.99
2019-03-13T05:50:55.693Z,19.02
2019-03-13T05:51:36.283Z,18.94
2019-03-13T05:52:16.875Z,18.98
2019-03-13T05:52:57.493Z,18.95
2019-03-13T05:53:38.085Z,18.95
2019-03-13T05:54:18.667Z,18.98
2019-03-13T05:54:59.274Z,18.98
2019-03-13T05:55:39.947Z,19
2019-03-13T05:56:20.560Z,18.94
2019-03-13T05:57:01.143Z,19.02
2019-03-13T05:57:41.718Z,19.02
2019-03-13T05:58:22.307Z,19.04
2019-03-13T05:59:02.914Z,18.95
2019-03-13T05:59:43.513Z,19
2019-03-13T06:00:24.157Z,19.04
2019-03-13T06:01:04.759Z,18.94
2019-03-13T06:01:45.377Z,19.04
2019-03-13T06:02:25.955Z,19.02
2019-03-13T06:03:06.560Z,18.95
2019-03-13T06:03:47.179Z,18.95
2019-03-13T06:04:27.761Z,18.99
2019-03-13T06:05:08.402Z,19.06
2019-03-13T06:05:49.025Z,19
2019-03-13T06:06:29.666Z,19
2019-03-13T06:07:10.285Z,19.02
2019-03-13T06:07:50.873Z,18.99
2019-03-13T06:08:31.486Z,19.02
2019-03-13T06:09:12.095Z,18.99
2019-03-13T06:09:52.690Z,18.99
2019-03-13T06:10:33.279Z,18.92
2019-03-13T06:11:13.882Z,19.04
2019-03-13T06:11:54.485Z,18.95
2019-03-13T06:12:35.078Z,18.99
2019-03-13T06:13:15.757Z,18.98
2019-03-13T06:13:56.355Z,18.99
2019-03-13T06:14:36.945Z,19.04
2019-03-13T06:15:17.547Z,19.04
2019-03-13T06:15:58.180Z,19
2019-03-13T06:16:38.853Z,18.94
2019-03-13T06:17:19.459Z,19.06
2019-03-13T06:18:00.066Z,19.04
2019-03-13T06:18:40.650Z,19.07
2019-03-13T06:19:21.235Z,18.99
2019-03-13T06:20:01.832Z,19.06
2019-03-13T06:20:42.424Z,19.1
2019-03-13T06:21:23.012Z,19
2019-03-13T06:22:03.609Z,18.95
2019-03-13T06:22:44.216Z,19
2019-03-13T06:23:24.850Z,19.06
2019-03-13T06:24:05.443Z,19.07
2019-03-13T06:24:46.040Z,19.07
2019-03-13T06:25:26.621Z,18.98
2019-03-13T06:26:07.218Z,19.02
2019-03-13T06:26:47.839Z,19.1
2019-03-13T06:27:28.447Z,19
2019-03-13T06:28:09.037Z,19.06
2019-03-13T06:28:49.631Z,19.08
2019-03-13T06:29:31.693Z,18.98
2019-03-13T06:30:10.817Z,19.06
2019-03-13T06:30:51.429Z,19.07
2019-03-13T06:31:32.015Z,19.07
2019-03-13T06:32:12.606Z,19.07
2019-03-13T06:32:53.207Z,18.98
2019-03-13T06:33:33.819Z,19
2019-03-13T06:34:14.420Z,19.06
2019-03-13T06:34:55.025Z,19.07
2019-03-13T06:35:35.629Z,19.02
2019-03-13T06:36:16.231Z,19.07
2019-03-13T06:36:56.833Z,19.06
2019-03-13T06:37:37.459Z,19.02
2019-03-13T06:38:18.082Z,18.98
2019-03-13T06:38:58.738Z,18.98
2019-03-13T06:39:39.276Z,19.04
2019-03-13T06:40:19.868Z,19.06
2019-03-13T06:41:00.451Z,19.11
2019-03-13T06:41:41.091Z,19.08
2019-03-13T06:42:21.679Z,19
2019-03-13T06:43:02.281Z,19.08
2019-03-13T06:43:42.888Z,19.06
2019-03-13T06:44:23.497Z,19.08
2019-03-13T06:45:04.076Z,19.1
2019-03-13T06:45:44.671Z,19
2019-03-13T06:46:25.295Z,19.07
2019-03-13T06:47:06.114Z,19.1
2019-03-13T06:47:46.491Z,19.08
2019-03-13T06:48:27.106Z,19.04
2019-03-13T06:49:07.701Z,19.06
2019-03-13T06:49:48.294Z,19.11
2019-03-13T06:50:28.907Z,19.08
2019-03-13T06:51:09.496Z,19.07
2019-03-13T06:51:50.085Z,19.1
2019-03-13T06:52:31.709Z,19.07
2019-03-13T06:53:11.262Z,19.08
2019-03-13T06:53:51.848Z,19.04
2019-03-13T06:54:32.459Z,19.04
2019-03-13T06:55:13.057Z,19.04
2019-03-13T06:55:53.643Z,19.04
2019-03-13T06:56:34.277Z,19.11
2019-03-13T06:57:14.879Z,19.08
2019-03-13T06:57:55.484Z,19.04
2019-03-13T06:58:36.126Z,19.14
2019-03-13T06:59:16.710Z,19.02
2019-03-13T06:59:57.343Z,19.13
2019-03-13T07:00:37.942Z,19.04
2019-03-13T07:01:18.578Z,19.1
2019-03-13T07:01:59.402Z,19.1
2019-03-13T07:02:40.053Z,19.07
2019-03-13T07:03:20.613Z,19.04
2019-03-13T07:04:01.213Z,19.06
2019-03-13T07:04:41.848Z,19.06
2019-03-13T07:05:22.435Z,19.13
2019-03-13T07:06:03.011Z,19.13
2019-03-13T07:06:43.611Z,19.07
2019-03-13T07:07:24.186Z,19.11
2019-03-13T07:08:06.674Z,19.13
2019-03-13T07:08:46.813Z,19.14
2019-03-13T07:09:27.400Z,19.21
2019-03-13T07:10:08.020Z,19.14
2019-03-13T07:10:48.606Z,19.16
2019-03-13T07:11:29.335Z,19.08
2019-03-13T07:12:09.898Z,19.16
2019-03-13T07:12:50.570Z,19.16
2019-03-13T07:13:31.356Z,19.19
2019-03-13T07:14:11.966Z,19.13
2019-03-13T07:14:52.569Z,19.16
2019-03-13T07:15:35.739Z,19.13
2019-03-13T07:16:13.793Z,19.13
2019-03-13T07:16:54.473Z,19.11
2019-03-13T07:17:35.008Z,19.13
2019-03-13T07:18:15.592Z,19.23
2019-03-13T07:18:56.230Z,19.25
2019-03-13T07:19:36.849Z,19.11
2019-03-13T07:20:17.586Z,19.14
2019-03-13T07:20:58.197Z,19.19
2019-03-13T07:21:38.907Z,19.16
2019-03-13T07:22:19.530Z,19.18
2019-03-13T07:23:00.177Z,19.19
2019-03-13T07:23:40.914Z,19.18
2019-03-13T07:24:21.534Z,19.16
2019-03-13T07:25:02.141Z,19.18
2019-03-13T07:25:42.749Z,19.19
2019-03-13T07:26:23.345Z,19.21
2019-03-13T07:27:03.937Z,19.14
2019-03-13T07:27:44.542Z,19.19
2019-03-13T07:28:25.140Z,19.31
2019-03-13T07:29:11.816Z,19.26
2019-03-13T07:29:46.330Z,19.18
2019-03-13T07:30:26.944Z,19.22
2019-03-13T07:31:07.580Z,19.19
2019-03-13T07:31:48.204Z,19.22
2019-03-13T07:32:28.800Z,19.14
2019-03-13T07:33:09.416Z,19.19
2019-03-13T07:33:50.014Z,19.21
2019-03-13T07:34:30.607Z,19.25
2019-03-13T07:35:11.183Z,19.26
2019-03-13T07:35:51.890Z,19.18
2019-03-13T07:36:32.492Z,19.16
2019-03-13T07:37:13.100Z,19.19
2019-03-13T07:37:55.362Z,19.16
2019-03-13T07:38:35.948Z,19.18
2019-03-13T07:39:16.546Z,19.19
2019-03-13T07:39:57.142Z,19.18
2019-03-13T07:40:37.766Z,19.23
2019-03-13T07:41:18.358Z,19.21
2019-03-13T07:41:58.964Z,19.22
2019-03-13T07:42:39.609Z,19.14
2019-03-13T07:43:20.208Z,19.18
2019-03-13T07:44:00.804Z,19.21
2019-03-13T07:44:41.387Z,19.14
2019-03-13T07:45:21.980Z,19.18
2019-03-13T07:46:02.578Z,19.16
2019-03-13T07:46:43.187Z,19.26
2019-03-13T07:47:23.769Z,19.23
2019-03-13T07:48:04.358Z,19.21
2019-03-13T07:48:44.950Z,19.18
2019-03-13T07:49:25.623Z,19.16
2019-03-13T07:50:06.218Z,19.19
2019-03-13T07:50:46.825Z,19.16
2019-03-13T07:51:27.480Z,19.19
2019-03-13T07:52:08.088Z,19.26
2019-03-13T07:52:48.678Z,19.16
2019-03-13T07:53:29.287Z,19.19
2019-03-13T07:54:09.938Z,19.23
2019-03-13T07:54:50.542Z,19.25
2019-03-13T07:55:31.163Z,19.19
2019-03-13T07:56:11.741Z,19.25
2019-03-13T07:56:52.354Z,19.29
2019-03-13T07:57:32.996Z,19.23
2019-03-13T07:58:13.583Z,19.29
2019-03-13T07:58:54.165Z,19.23
2019-03-13T07:59:34.746Z,19.23
2019-03-13T08:00:15.336Z,19.23
2019-03-13T08:00:55.925Z,19.28
2019-03-13T08:01:36.525Z,19.23
2019-03-13T08:02:17.123Z,19.18
2019-03-13T08:02:57.750Z,19.18
2019-03-13T08:03:38.404Z,19.19
2019-03-13T08:04:18.986Z,19.25
2019-03-13T08:04:59.630Z,19.25
2019-03-13T08:05:40.240Z,19.19
2019-03-13T08:06:20.836Z,19.19
2019-03-13T08:07:01.425Z,19.22
2019-03-13T08:07:42.102Z,19.25
2019-03-13T08:08:22.770Z,19.22
2019-03-13T08:09:03.377Z,19.18
2019-03-13T08:09:43.998Z,19.25
2019-03-13T08:10:24.659Z,19.19
2019-03-13T08:11:05.294Z,19.19
2019-03-13T08:11:45.928Z,19.26
2019-03-13T08:12:26.590Z,19.23
2019-03-13T08:13:07.190Z,19.16
2019-03-13T08:13:47.779Z,19.25
2019-03-13T08:14:28.404Z,19.29
2019-03-13T08:15:09.006Z,19.18
2019-03-13T08:15:49.614Z,19.19
2019-03-13T08:16:30.210Z,19.18
2019-03-13T08:17:10.814Z,19.21
2019-03-13T08:17:51.431Z,19.23
2019-03-13T08:18:32.112Z,19.29
2019-03-13T08:19:12.707Z,19.23
2019-03-13T08:19:53.300Z,19.23
2019-03-13T08:20:33.894Z,19.21
2019-03-13T08:21:14.482Z,19.28
2019-03-13T08:21:55.084Z,19.22
2019-03-13T08:22:35.688Z,19.18
2019-03-13T08:23:16.313Z,19.26
2019-03-13T08:23:56.892Z,19.18
2019-03-13T08:24:37.485Z,19.22
2019-03-13T08:25:18.090Z,19.16
2019-03-13T08:25:58.680Z,19.22
2019-03-13T08:26:39.274Z,19.18
2019-03-13T08:27:19.864Z,19.18
2019-03-13T08:28:00.462Z,19.23
2019-03-13T08:28:41.056Z,19.13
2019-03-13T08:29:21.651Z,19.21
2019-03-13T08:30:02.252Z,19.19
2019-03-13T08:30:42.848Z,19.23
2019-03-13T08:31:23.484Z,19.14
2019-03-13T08:32:04.086Z,19.22
2019-03-13T08:32:44.696Z,19.22
2019-03-13T08:33:25.313Z,19.29
2019-03-13T08:34:05.909Z,19.19
2019-03-13T08:34:46.514Z,19.22
2019-03-13T08:35:27.124Z,19.29
2019-03-13T08:36:07.714Z,19.29
2019-03-13T08:36:48.436Z,19.28
2019-03-13T08:37:29.030Z,19.26
2019-03-13T08:38:09.622Z,19.23
2019-03-13T08:38:50.260Z,19.25
2019-03-13T08:39:31.021Z,19.23
2019-03-13T08:40:11.595Z,19.23
2019-03-13T08:40:52.206Z,19.21
2019-03-13T08:41:32.804Z,19.22
2019-03-13T08:42:13.446Z,19.23
2019-03-13T08:42:54.054Z,19.36
2019-03-13T08:43:34.649Z,19.23
2019-03-13T08:44:15.262Z,19.25
2019-03-13T08:44:55.892Z,19.23